createdAt,value
2018-10-01T00:00:02.581Z,4.90
2018-10-01T00:02:31.376Z,5.00
2018-10-01T00:04:59.912Z,5.00
2018-10-01T00:07:28.725Z,5.20
2018-10-01T00:09:57.318Z,5.40
2018-10-01T00:12:25.969Z,5.50
2018-10-01T00:14:54.800Z,5.50
2018-10-01T00:17:23.244Z,5.50
2018-10-01T00:20:56.577Z,5.60
2018-10-01T00:23:25.101Z,5.80
2018-10-01T00:25:53.833Z,5.90
2018-10-01T00:28:22.466Z,6.00
2018-10-01T00:30:51.150Z,5.90
2018-10-01T00:33:19.677Z,5.90
2018-10-01T00:35:48.301Z,5.80
2018-10-01T00:38:17.104Z,5.90
2018-10-01T00:40:45.575Z,5.80
2018-10-01T00:43:14.601Z,5.50
2018-10-01T00:45:43.241Z,5.40
2018-10-01T00:48:11.955Z,5.50
2018-10-01T00:50:40.688Z,5.30
2018-10-01T00:53:09.653Z,5.20
2018-10-01T00:55:38.480Z,5.40
2018-10-01T00:58:07.359Z,5.60
2018-10-01T01:00:36.069Z,5.70
2018-10-01T01:03:04.603Z,5.70
2018-10-01T01:05:33.098Z,5.80
2018-10-01T01:08:01.588Z,5.80
2018-10-01T01:10:30.150Z,5.90
2018-10-01T01:12:58.889Z,5.90
2018-10-01T01:15:27.423Z,5.80
2018-10-01T01:17:56.193Z,5.70
2018-10-01T01:20:24.798Z,5.60
2018-10-01T01:22:53.428Z,5.60
2018-10-01T01:25:22.375Z,5.60
2018-10-01T01:27:51.131Z,5.70
2018-10-01T01:30:19.678Z,5.60
2018-10-01T01:32:48.193Z,5.40
2018-10-01T01:35:16.921Z,5.30
2018-10-01T01:37:45.475Z,5.30
2018-10-01T01:40:13.974Z,5.40
2018-10-01T01:42:42.484Z,5.20
2018-10-01T01:45:11.132Z,5.30
2018-10-01T01:47:39.703Z,5.30
2018-10-01T01:50:08.323Z,5.40
2018-10-01T01:52:36.952Z,5.50
2018-10-01T01:55:06.167Z,5.70
2018-10-01T01:57:34.711Z,5.80
2018-10-01T02:00:03.869Z,5.80
2018-10-01T02:02:32.630Z,5.70
2018-10-01T02:05:01.208Z,5.70
2018-10-01T02:07:29.986Z,5.70
2018-10-01T02:09:58.526Z,5.80
2018-10-01T02:12:27.084Z,5.80
2018-10-01T02:14:55.595Z,5.80
2018-10-01T02:17:24.305Z,6.50
2018-10-01T02:19:53.165Z,6.10
2018-10-01T02:22:22.063Z,6.20
2018-10-01T02:24:50.659Z,6.10
2018-10-01T02:27:19.187Z,6.00
2018-10-01T02:29:47.645Z,6.00
2018-10-01T02:32:16.567Z,6.00
2018-10-01T02:34:45.072Z,6.10
2018-10-01T02:37:13.693Z,6.20
2018-10-01T02:39:42.647Z,6.30
2018-10-01T02:42:11.421Z,6.20
2018-10-01T02:44:40.077Z,6.20
2018-10-01T02:47:08.763Z,6.10
2018-10-01T02:49:37.672Z,6.10
2018-10-01T02:52:11.655Z,6.20
2018-10-01T02:54:40.204Z,6.30
2018-10-01T02:57:08.807Z,6.30
2018-10-01T02:59:37.347Z,6.30
2018-10-01T03:02:05.937Z,6.30
2018-10-01T03:04:34.961Z,6.30
2018-10-01T03:07:03.402Z,6.30
2018-10-01T03:09:32.135Z,6.30
2018-10-01T03:12:00.633Z,6.30
2018-10-01T03:14:29.176Z,6.20
2018-10-01T03:16:57.660Z,6.10
2018-10-01T03:19:26.205Z,6.00
2018-10-01T03:21:54.958Z,6.00
2018-10-01T03:24:23.719Z,6.00
2018-10-01T03:26:52.236Z,6.10
2018-10-01T03:29:20.864Z,6.20
2018-10-01T03:31:49.399Z,6.10
2018-10-01T03:34:18.343Z,5.90
2018-10-01T03:36:46.918Z,6.00
2018-10-01T03:39:15.508Z,6.10
2018-10-01T03:41:44.040Z,6.30
2018-10-01T03:44:12.750Z,6.40
2018-10-01T03:46:41.524Z,9.50
2018-10-01T03:49:10.211Z,6.50
2018-10-01T03:51:38.735Z,6.60
2018-10-01T03:54:07.704Z,6.60
2018-10-01T03:56:36.236Z,6.60
2018-10-01T03:59:04.739Z,6.60
2018-10-01T04:01:33.277Z,6.70
2018-10-01T04:04:01.800Z,6.70
2018-10-01T04:06:30.352Z,6.70
2018-10-01T04:08:59.052Z,6.80
2018-10-01T04:11:27.576Z,6.70
2018-10-01T04:13:56.097Z,6.70
2018-10-01T04:16:24.692Z,6.80
2018-10-01T04:18:53.196Z,6.70
2018-10-01T04:21:22.063Z,6.70
2018-10-01T04:23:50.981Z,6.60
2018-10-01T04:26:19.669Z,6.50
2018-10-01T04:28:48.439Z,6.50
2018-10-01T04:31:17.387Z,6.30
2018-10-01T04:33:46.264Z,6.30
2018-10-01T04:36:14.794Z,6.20
2018-10-01T04:38:43.525Z,6.10
2018-10-01T04:41:12.186Z,6.20
2018-10-01T04:43:40.918Z,6.10
2018-10-01T04:46:09.449Z,6.10
2018-10-01T04:48:38.426Z,5.90
2018-10-01T04:51:06.962Z,5.80
2018-10-01T04:53:35.984Z,5.80
2018-10-01T04:56:04.570Z,5.70
2018-10-01T04:58:33.463Z,5.60
2018-10-01T05:01:02.115Z,5.60
2018-10-01T05:03:30.904Z,5.50
2018-10-01T05:05:59.736Z,5.50
2018-10-01T05:08:28.625Z,5.40
2018-10-01T05:10:57.119Z,5.40
2018-10-01T05:13:25.769Z,5.40
2018-10-01T05:15:54.255Z,5.40
2018-10-01T05:18:23.031Z,5.40
2018-10-01T05:20:51.917Z,5.30
2018-10-01T05:23:21.008Z,5.40
2018-10-01T05:25:49.649Z,5.40
2018-10-01T05:28:18.410Z,5.30
2018-10-01T05:30:47.249Z,5.30
2018-10-01T05:33:16.190Z,1.50
2018-10-01T05:35:44.730Z,5.30
2018-10-01T05:38:13.387Z,5.30
2018-10-01T05:40:41.916Z,5.20
2018-10-01T05:43:10.547Z,5.30
2018-10-01T05:45:39.107Z,5.30
2018-10-01T05:48:07.968Z,5.30
2018-10-01T05:50:36.900Z,5.40
2018-10-01T05:53:05.852Z,5.60
2018-10-01T05:55:34.994Z,5.60
2018-10-01T05:58:03.636Z,5.70
2018-10-01T06:00:32.538Z,5.80
2018-10-01T06:03:01.069Z,5.90
2018-10-01T06:05:29.957Z,5.90
2018-10-01T06:07:58.626Z,6.00
2018-10-01T06:10:27.126Z,6.10
2018-10-01T06:12:55.701Z,6.20
2018-10-01T06:15:24.231Z,6.20
2018-10-01T06:17:52.971Z,6.50
2018-10-01T06:20:21.507Z,6.60
2018-10-01T06:22:50.012Z,6.60
2018-10-01T06:25:19.121Z,6.70
2018-10-01T06:27:47.634Z,6.80
2018-10-01T06:30:16.213Z,7.00
2018-10-01T06:32:45.119Z,7.20
2018-10-01T06:35:13.724Z,7.20
2018-10-01T06:37:42.876Z,7.30
2018-10-01T06:40:11.491Z,7.40
2018-10-01T06:42:40.137Z,7.40
2018-10-01T06:45:08.769Z,7.60
2018-10-01T06:47:37.518Z,7.80
2018-10-01T06:50:06.248Z,7.90
2018-10-01T06:52:35.088Z,7.90
2018-10-01T06:55:03.831Z,8.00
2018-10-01T06:57:32.939Z,8.10
2018-10-01T07:00:01.779Z,8.10
2018-10-01T07:02:30.268Z,8.20
2018-10-01T07:04:59.139Z,8.30
2018-10-01T07:07:27.747Z,8.40
2018-10-01T07:09:56.321Z,8.50
2018-10-01T07:12:24.891Z,8.70
2018-10-01T07:14:53.529Z,8.70
2018-10-01T07:17:23.274Z,8.80
2018-10-01T07:19:51.818Z,9.00
2018-10-01T07:22:21.084Z,9.10
2018-10-01T07:24:49.914Z,9.10
2018-10-01T07:27:21.904Z,9.20
2018-10-01T07:29:50.472Z,9.30
2018-10-01T07:32:19.004Z,9.30
2018-10-01T07:34:47.509Z,9.30
2018-10-01T07:37:16.486Z,9.40
2018-10-01T07:39:45.342Z,9.60
2018-10-01T07:42:14.219Z,9.70
2018-10-01T07:44:47.200Z,9.70
2018-10-01T07:47:15.865Z,9.90
2018-10-01T07:49:44.643Z,10.10
2018-10-01T07:52:13.199Z,10.10
2018-10-01T07:54:42.215Z,10.10
2018-10-01T07:57:11.227Z,10.10
2018-10-01T07:59:40.494Z,10.00
2018-10-01T08:02:09.110Z,9.90
2018-10-01T08:04:37.793Z,10.00
2018-10-01T08:07:06.698Z,10.00
2018-10-01T08:09:35.430Z,10.00
2018-10-01T08:12:04.101Z,10.10
2018-10-01T08:14:32.929Z,10.10
2018-10-01T08:17:01.666Z,10.30
2018-10-01T08:19:30.301Z,10.30
2018-10-01T08:21:58.969Z,10.20
2018-10-01T08:24:27.983Z,10.30
2018-10-01T08:26:57.114Z,10.40
2018-10-01T08:29:25.848Z,10.40
2018-10-01T08:31:54.980Z,10.30
2018-10-01T08:34:23.606Z,10.20
2018-10-01T08:36:52.938Z,10.10
2018-10-01T08:39:21.656Z,10.20
2018-10-01T08:41:50.559Z,10.30
2018-10-01T08:44:19.125Z,10.30
2018-10-01T08:46:52.045Z,10.50
2018-10-01T08:49:40.075Z,10.80
2018-10-01T08:52:15.925Z,11.00
2018-10-01T08:54:46.682Z,11.20
2018-10-01T08:57:15.244Z,11.30
2018-10-01T08:59:44.356Z,11.80
2018-10-01T09:02:13.132Z,11.80
2018-10-01T09:04:41.703Z,11.80
2018-10-01T09:07:10.840Z,11.80
2018-10-01T09:09:39.597Z,11.90
2018-10-01T09:12:08.606Z,12.00
2018-10-01T09:14:37.344Z,12.00
2018-10-01T09:17:06.197Z,12.00
2018-10-01T09:19:34.993Z,12.10
2018-10-01T09:22:03.612Z,12.00
2018-10-01T09:24:32.624Z,11.90
2018-10-01T09:27:01.645Z,11.70
2018-10-01T09:29:30.625Z,11.60
2018-10-01T09:31:59.870Z,11.50
2018-10-01T09:34:29.206Z,11.20
2018-10-01T09:36:57.847Z,11.00
2018-10-01T09:39:26.491Z,10.80
2018-10-01T09:41:55.130Z,10.80
2018-10-01T09:44:23.750Z,10.80
2018-10-01T09:46:52.510Z,10.60
2018-10-01T09:49:21.063Z,10.60
2018-10-01T09:51:49.883Z,10.70
2018-10-01T09:54:19.285Z,11.20
2018-10-01T09:56:49.413Z,12.10
2018-10-01T09:59:17.987Z,14.00
2018-10-01T10:01:46.673Z,15.50
2018-10-01T10:04:15.768Z,15.50
2018-10-01T10:06:44.481Z,16.30
2018-10-01T10:09:13.254Z,16.10
2018-10-01T10:11:42.172Z,16.40
2018-10-01T10:14:11.017Z,16.10
2018-10-01T10:16:39.722Z,15.70
2018-10-01T10:19:08.587Z,14.30
2018-10-01T10:21:37.310Z,13.90
2018-10-01T10:24:06.185Z,13.50
2018-10-01T10:26:35.090Z,13.20
2018-10-01T10:29:04.103Z,12.80
2018-10-01T10:31:32.744Z,12.90
2018-10-01T10:34:01.527Z,13.70
2018-10-01T10:36:30.230Z,15.40
2018-10-01T10:38:58.955Z,15.40
2018-10-01T10:41:27.496Z,14.70
2018-10-01T10:43:56.255Z,14.00
2018-10-01T10:46:24.981Z,13.70
2018-10-01T10:48:53.573Z,13.50
2018-10-01T10:51:22.158Z,13.40
2018-10-01T10:53:50.776Z,13.20
2018-10-01T10:56:19.343Z,13.10
2018-10-01T10:58:54.324Z,13.30
2018-10-01T11:01:22.920Z,13.10
2018-10-01T11:03:51.657Z,13.60
2018-10-01T11:06:20.432Z,14.30
2018-10-01T11:08:49.026Z,16.20
2018-10-01T11:11:17.570Z,17.30
2018-10-01T11:13:46.218Z,17.50
2018-10-01T11:16:14.920Z,18.80
2018-10-01T11:18:43.657Z,20.20
2018-10-01T11:21:12.479Z,20.80
2018-10-01T11:23:41.119Z,19.90
2018-10-01T11:26:10.167Z,20.40
2018-10-01T11:28:38.908Z,19.90
2018-10-01T11:31:07.719Z,18.60
2018-10-01T11:33:36.374Z,17.30
2018-10-01T11:36:04.936Z,16.10
2018-10-01T11:38:33.514Z,14.60
2018-10-01T11:41:02.044Z,13.50
2018-10-01T11:43:30.567Z,13.10
2018-10-01T11:45:59.088Z,13.10
2018-10-01T11:48:27.692Z,13.40
2018-10-01T11:50:56.366Z,13.70
2018-10-01T11:53:24.911Z,14.40
2018-10-01T11:55:53.474Z,14.70
2018-10-01T11:58:22.022Z,14.60
2018-10-01T12:00:50.910Z,14.20
2018-10-01T12:03:19.613Z,12.70
2018-10-01T12:05:48.261Z,12.60
2018-10-01T12:08:16.912Z,12.00
2018-10-01T12:10:45.992Z,11.70
2018-10-01T12:13:15.035Z,11.50
2018-10-01T12:15:43.996Z,11.50
2018-10-01T12:18:13.119Z,11.70
2018-10-01T12:20:41.753Z,12.70
2018-10-01T12:23:10.485Z,14.00
2018-10-01T12:25:39.507Z,14.30
2018-10-01T12:28:08.404Z,16.00
2018-10-01T12:30:37.493Z,17.80
2018-10-01T12:33:06.111Z,18.50
2018-10-01T12:35:35.099Z,17.60
2018-10-01T12:38:03.696Z,16.50
2018-10-01T12:40:32.375Z,15.40
2018-10-01T12:43:00.990Z,13.90
2018-10-01T12:45:29.897Z,12.00
2018-10-01T12:47:58.787Z,11.20
2018-10-01T12:50:27.693Z,10.50
2018-10-01T12:52:56.750Z,10.10
2018-10-01T12:55:25.608Z,9.70
2018-10-01T12:57:54.169Z,9.60
2018-10-01T13:00:22.916Z,9.60
2018-10-01T13:02:51.696Z,9.70
2018-10-01T13:05:20.537Z,9.60
2018-10-01T13:07:49.181Z,9.40
2018-10-01T13:10:17.943Z,9.60
2018-10-01T13:12:47.029Z,9.70
2018-10-01T13:15:15.853Z,9.80
2018-10-01T13:17:44.442Z,9.90
2018-10-01T13:20:13.475Z,10.20
2018-10-01T13:22:42.553Z,10.10
2018-10-01T13:25:11.925Z,10.10
2018-10-01T13:27:41.006Z,10.30
2018-10-01T13:30:10.206Z,10.40
2018-10-01T13:32:39.125Z,10.60
2018-10-01T13:35:08.162Z,10.60
2018-10-01T13:37:36.989Z,10.50
2018-10-01T13:40:06.078Z,10.40
2018-10-01T13:42:35.375Z,10.20
2018-10-01T13:45:04.287Z,10.10
2018-10-01T13:47:33.029Z,9.80
2018-10-01T13:50:01.892Z,9.80
2018-10-01T13:52:30.807Z,9.90
2018-10-01T13:54:59.771Z,9.20
2018-10-01T13:57:28.658Z,8.70
2018-10-01T13:59:57.540Z,8.40
2018-10-01T14:02:26.138Z,8.40
2018-10-01T14:04:54.888Z,8.40
2018-10-01T14:07:23.824Z,8.50
2018-10-01T14:09:52.850Z,8.80
2018-10-01T14:12:21.867Z,9.20
2018-10-01T14:14:50.705Z,9.50
2018-10-01T14:17:19.862Z,9.90
2018-10-01T14:19:48.516Z,10.70
2018-10-01T14:22:17.462Z,11.50
2018-10-01T14:24:46.565Z,12.40
2018-10-01T14:27:15.502Z,14.10
2018-10-01T14:29:44.647Z,15.30
2018-10-01T14:32:14.502Z,16.60
2018-10-01T14:34:43.578Z,15.90
2018-10-01T14:37:12.425Z,14.40
2018-10-01T14:39:41.330Z,13.40
2018-10-01T14:42:10.664Z,12.50
2018-10-01T14:44:39.534Z,11.90
2018-10-01T14:47:08.245Z,10.90
2018-10-01T14:49:37.032Z,10.20
2018-10-01T14:52:05.761Z,9.80
2018-10-01T14:54:34.667Z,9.30
2018-10-01T14:57:03.376Z,9.10
2018-10-01T14:59:32.287Z,9.00
2018-10-01T15:02:01.243Z,9.40
2018-10-01T15:04:30.110Z,9.90
2018-10-01T15:06:59.069Z,10.80
2018-10-01T15:09:27.676Z,12.10
2018-10-01T15:11:56.352Z,11.90
2018-10-01T15:14:25.128Z,10.90
2018-10-01T15:16:54.054Z,10.90
2018-10-01T15:19:22.858Z,10.90
2018-10-01T15:21:51.613Z,10.40
2018-10-01T15:24:20.809Z,11.10
2018-10-01T15:26:49.596Z,12.50
2018-10-01T15:29:18.524Z,13.30
2018-10-01T15:31:47.534Z,13.90
2018-10-01T15:34:16.634Z,14.70
2018-10-01T15:36:45.204Z,14.40
2018-10-01T15:39:14.254Z,13.40
2018-10-01T15:41:43.179Z,12.50
2018-10-01T15:44:11.840Z,11.70
2018-10-01T15:46:40.801Z,11.20
2018-10-01T15:49:09.613Z,10.70
2018-10-01T15:51:38.336Z,10.50
2018-10-01T15:54:07.010Z,10.20
2018-10-01T15:56:35.759Z,9.90
2018-10-01T15:59:04.933Z,9.80
2018-10-01T16:01:33.740Z,9.90
2018-10-01T16:04:02.540Z,10.00
2018-10-01T16:06:31.580Z,9.90
2018-10-01T16:09:00.611Z,9.70
2018-10-01T16:11:29.858Z,9.40
2018-10-01T16:13:58.480Z,9.20
2018-10-01T16:16:27.153Z,9.00
2018-10-01T16:18:56.053Z,8.80
2018-10-01T16:21:25.005Z,8.60
2018-10-01T16:23:53.855Z,8.10
2018-10-01T16:26:22.751Z,11.20
2018-10-01T16:28:51.538Z,7.90
2018-10-01T16:31:20.190Z,7.60
2018-10-01T16:33:49.119Z,7.50
2018-10-01T16:36:18.051Z,7.60
2018-10-01T16:38:46.689Z,7.40
2018-10-01T16:41:15.508Z,7.30
2018-10-01T16:43:44.078Z,7.30
2018-10-01T16:46:12.993Z,7.10
2018-10-01T16:48:41.961Z,7.10
2018-10-01T16:51:10.866Z,7.00
2018-10-01T16:53:39.479Z,6.90
2018-10-01T16:56:08.300Z,6.80
2018-10-01T16:58:37.021Z,6.80
2018-10-01T17:01:05.656Z,6.70
2018-10-01T17:03:34.897Z,6.60
2018-10-01T17:06:03.708Z,6.60
2018-10-01T17:08:32.492Z,6.60
2018-10-01T17:11:01.098Z,6.50
2018-10-01T17:13:29.791Z,6.40
2018-10-01T17:15:59.312Z,6.50
2018-10-01T17:18:28.239Z,6.40
2018-10-01T17:20:57.116Z,6.50
2018-10-01T17:23:26.314Z,6.50
2018-10-01T17:25:55.161Z,6.60
2018-10-01T17:28:23.883Z,6.60
2018-10-01T17:30:52.711Z,6.60
2018-10-01T17:33:21.709Z,6.60
2018-10-01T17:35:50.832Z,6.60
2018-10-01T17:38:19.667Z,6.60
2018-10-01T17:40:48.435Z,6.60
2018-10-01T17:43:17.053Z,6.60
2018-10-01T17:45:45.776Z,6.40
2018-10-01T17:48:14.647Z,6.40
2018-10-01T17:50:43.417Z,6.40
2018-10-01T17:53:12.121Z,6.40
2018-10-01T17:55:41.091Z,6.30
2018-10-01T17:58:09.983Z,6.30
2018-10-01T18:00:38.882Z,6.30
2018-10-01T18:03:07.942Z,6.30
2018-10-01T18:05:37.073Z,6.20
2018-10-01T18:08:06.186Z,6.20
2018-10-01T18:10:35.197Z,6.10
2018-10-01T18:13:04.056Z,6.00
2018-10-01T18:15:33.104Z,6.10
2018-10-01T18:18:01.759Z,6.10
2018-10-01T18:20:31.030Z,6.10
2018-10-01T18:23:00.068Z,6.10
2018-10-01T18:25:29.011Z,6.10
2018-10-01T18:27:57.845Z,6.00
2018-10-01T18:30:26.996Z,6.10
2018-10-01T18:32:55.769Z,6.30
2018-10-01T18:35:24.427Z,6.20
2018-10-01T18:37:53.184Z,6.30
2018-10-01T18:40:22.175Z,6.20
2018-10-01T18:42:51.237Z,6.20
2018-10-01T18:45:19.906Z,6.10
2018-10-01T18:47:48.794Z,6.10
2018-10-01T18:50:17.724Z,6.00
2018-10-01T18:52:46.678Z,5.90
2018-10-01T18:55:15.836Z,5.90
2018-10-01T18:57:44.461Z,6.00
2018-10-01T19:00:13.692Z,6.10
2018-10-01T19:02:42.704Z,6.10
2018-10-01T19:05:11.882Z,6.00
2018-10-01T19:07:40.859Z,6.00
2018-10-01T19:10:10.677Z,6.10
2018-10-01T19:12:39.718Z,6.20
2018-10-01T19:15:10.177Z,6.30
2018-10-01T19:17:38.931Z,6.20
2018-10-01T19:20:07.919Z,6.20
2018-10-01T19:22:36.952Z,6.20
2018-10-01T19:25:06.017Z,6.20
2018-10-01T19:27:35.260Z,6.20
2018-10-01T19:30:04.093Z,6.20
2018-10-01T19:32:32.909Z,6.30
2018-10-01T19:35:01.741Z,6.20
2018-10-01T19:37:30.700Z,6.20
2018-10-01T19:39:59.365Z,6.20
2018-10-01T19:42:28.187Z,6.20
2018-10-01T19:44:57.124Z,6.20
2018-10-01T19:47:26.163Z,6.30
2018-10-01T19:49:54.909Z,6.20
2018-10-01T19:52:23.644Z,6.20
2018-10-01T19:54:52.612Z,6.10
2018-10-01T19:57:21.556Z,6.10
2018-10-01T19:59:50.281Z,6.10
2018-10-01T20:02:18.960Z,6.00
2018-10-01T20:04:47.735Z,5.90
2018-10-01T20:07:16.814Z,5.90
2018-10-01T20:09:45.653Z,5.90
2018-10-01T20:12:15.298Z,5.90
2018-10-01T20:14:44.667Z,6.00
2018-10-01T20:17:13.822Z,6.10
2018-10-01T20:19:43.172Z,6.30
2018-10-01T20:22:13.641Z,6.30
2018-10-01T20:24:42.401Z,6.30
2018-10-01T20:27:11.017Z,6.40
2018-10-01T20:29:39.877Z,6.50
2018-10-01T20:32:08.558Z,6.40
2018-10-01T20:34:37.540Z,6.30
2018-10-01T20:37:06.222Z,6.30
2018-10-01T20:39:34.867Z,6.20
2018-10-01T20:42:03.524Z,6.20
2018-10-01T20:44:32.500Z,6.10
2018-10-01T20:47:01.501Z,6.10
2018-10-01T20:49:30.358Z,6.00
2018-10-01T20:51:58.927Z,6.00
2018-10-01T20:54:27.617Z,6.00
2018-10-01T20:56:56.427Z,5.80
2018-10-01T20:59:25.342Z,5.70
2018-10-01T21:01:54.306Z,5.60
2018-10-01T21:04:22.959Z,5.50
2018-10-01T21:06:51.738Z,5.60
2018-10-01T21:09:20.677Z,5.50
2018-10-01T21:11:49.964Z,5.50
2018-10-01T21:14:18.591Z,5.50
2018-10-01T21:16:47.425Z,5.60
2018-10-01T21:19:15.972Z,5.50
2018-10-01T21:21:44.666Z,5.40
2018-10-01T21:24:13.547Z,5.40
2018-10-01T21:26:42.527Z,5.30
2018-10-01T21:29:11.451Z,5.20
2018-10-01T21:31:40.106Z,5.30
2018-10-01T21:34:09.004Z,5.20
2018-10-01T21:36:37.655Z,5.30
2018-10-01T21:39:08.728Z,5.20
2018-10-01T21:41:37.440Z,5.20
2018-10-01T21:44:06.185Z,5.20
2018-10-01T21:46:35.107Z,5.20
2018-10-01T21:49:03.827Z,5.30
2018-10-01T21:51:32.346Z,5.20
2018-10-01T21:54:00.909Z,5.30
2018-10-01T21:56:29.500Z,4.60
2018-10-01T21:58:58.041Z,5.30
2018-10-01T22:01:31.880Z,5.40
2018-10-01T22:04:00.414Z,5.40
2018-10-01T22:06:28.922Z,5.40
2018-10-01T22:08:57.475Z,5.30
2018-10-01T22:11:25.995Z,5.30
2018-10-01T22:13:54.656Z,5.30
2018-10-01T22:16:23.474Z,5.30
2018-10-01T22:18:52.071Z,5.20
2018-10-01T22:21:20.630Z,5.20
2018-10-01T22:23:49.219Z,5.20
2018-10-01T22:26:17.916Z,5.20
2018-10-01T22:28:46.425Z,5.30
2018-10-01T22:31:15.128Z,5.30
2018-10-01T22:33:43.778Z,5.40
2018-10-01T22:36:12.460Z,5.50
2018-10-01T22:38:41.118Z,5.60
2018-10-01T22:41:09.808Z,5.60
2018-10-01T22:43:38.421Z,5.60
2018-10-01T22:46:07.515Z,5.70
2018-10-01T22:48:36.274Z,5.70
2018-10-01T22:51:04.824Z,5.80
2018-10-01T22:53:33.365Z,5.70
2018-10-01T22:56:01.880Z,5.80
2018-10-01T22:58:30.769Z,5.70
2018-10-01T23:00:59.527Z,5.60
2018-10-01T23:03:28.172Z,5.70
2018-10-01T23:05:57.167Z,5.70
2018-10-01T23:08:26.186Z,5.60
2018-10-01T23:10:54.801Z,5.60
2018-10-01T23:13:23.489Z,5.60
2018-10-01T23:15:52.076Z,5.50
2018-10-01T23:18:20.753Z,5.60
2018-10-01T23:20:49.484Z,5.60
2018-10-01T23:23:18.936Z,5.70
2018-10-01T23:25:47.698Z,5.70
2018-10-01T23:28:16.268Z,5.70
2018-10-01T23:30:45.031Z,5.70
2018-10-01T23:33:13.939Z,5.70
2018-10-01T23:35:42.878Z,5.70
2018-10-01T23:38:11.799Z,5.80
2018-10-01T23:40:40.457Z,5.80
2018-10-01T23:43:09.059Z,5.70
2018-10-01T23:45:37.982Z,5.90
2018-10-01T23:48:07.264Z,5.90
2018-10-01T23:50:36.135Z,5.90
2018-10-01T23:53:05.314Z,5.80
2018-10-01T23:55:33.961Z,5.80
2018-10-01T23:58:02.620Z,5.70
